Time;durP1;ratioP1;P1;durP2;ratioP2;P2;SDS_P1;SDS_P2;PMS_P1;PMS_P2;Temp;Humidity;BMP_temperature;BMP_pressure;BME280_temperature;BME280_humidity;BME280_pressure;Samples;Min_cycle;Max_cycle;Signal;HPM_P1;HPM_P2
2023/01/27 00:03:00;;;;;;;11.02;7.53;;;6.90;84.80;;;;;;10942764;32;20345;-74
2023/01/27 00:09:02;;;;;;;8.35;5.43;;;7.00;85.20;;;;;;10942680;32;20002;-74
2023/01/27 00:15:05;;;;;;;10.18;7.30;;;7.00;84.80;;;;;;10941933;32;20330;-74
2023/01/27 00:27:27;;;;;;;8.15;5.32;;;6.70;84.70;;;;;;10787822;33;20059;-74
2023/01/27 00:33:29;;;;;;;12.77;7.22;;;6.70;84.50;;;;;;10787849;33;20304;-73
2023/01/27 00:39:32;;;;;;;10.63;6.80;;;6.70;84.30;;;;;;10774729;33;20028;-74
2023/01/27 00:45:50;;;;;;;12.85;8.15;;;6.70;83.90;;;;;;10787692;33;20016;-74
2023/01/27 00:51:53;;;;;;;11.90;6.30;;;6.70;83.70;;;;;;10774488;33;20008;-74
2023/01/27 00:57:55;;;;;;;9.70;5.55;;;6.60;83.60;;;;;;10787321;33;20024;-74
2023/01/27 01:03:57;;;;;;;14.13;8.80;;;6.50;83.50;;;;;;10787243;33;20025;-74
2023/01/27 01:10:06;;;;;;;12.20;7.35;;;6.40;83.40;;;;;;10783092;33;20012;-74
2023/01/27 01:16:17;;;;;;;8.95;5.68;;;6.50;83.40;;;;;;10786787;33;20024;-74
2023/01/27 01:22:20;;;;;;;16.10;7.87;;;6.50;83.10;;;;;;10787363;33;20024;-74
2023/01/27 01:28:25;;;;;;;9.60;5.45;;;6.40;83.10;;;;;;10791131;33;20016;-74
2023/01/27 01:34:27;;;;;;;11.27;6.68;;;6.30;83.20;;;;;;10792812;33;20016;-74
2023/01/27 01:40:29;;;;;;;12.95;7.70;;;6.20;83.10;;;;;;10788724;33;20350;-74
2023/01/27 01:46:32;;;;;;;8.93;5.65;;;6.20;82.90;;;;;;10791808;33;20413;-74
2023/01/27 01:52:33;;;;;;;15.10;9.20;;;6.20;82.90;;;;;;10792405;33;20017;-74
2023/01/27 01:58:36;;;;;;;11.32;7.57;;;6.10;82.90;;;;;;10792213;33;20029;-74
2023/01/27 02:04:45;;;;;;;9.30;6.20;;;6.10;82.90;;;;;;10792007;33;20398;-73
2023/01/27 02:10:49;;;;;;;9.52;5.68;;;6.10;82.70;;;;;;10791901;33;20042;-74
2023/01/27 02:16:51;;;;;;;8.80;5.47;;;6.00;82.70;;;;;;10791596;33;20051;-74
2023/01/27 02:30:21;;;;;;;11.45;7.03;;;5.80;82.80;;;;;;10792100;32;20082;-74
2023/01/27 02:36:33;;;;;;;12.75;8.13;;;5.80;82.60;;;;;;10790786;33;20032;-74
2023/01/27 02:42:39;;;;;;;10.70;7.18;;;5.70;82.60;;;;;;10790894;33;20061;-74
2023/01/27 02:48:42;;;;;;;11.35;6.72;;;5.70;82.70;;;;;;10787444;33;20056;-74
2023/01/27 02:54:46;;;;;;;11.90;7.53;;;5.70;82.80;;;;;;10790578;33;20024;-74
2023/01/27 03:00:48;;;;;;;13.20;8.80;;;5.80;82.70;;;;;;10790429;33;20020;-73
2023/01/27 03:06:50;;;;;;;11.60;6.90;;;5.80;82.60;;;;;;10776986;33;20028;-74
2023/01/27 03:12:52;;;;;;;10.93;7.53;;;5.80;82.80;;;;;;10790234;33;20047;-73
2023/01/27 03:18:55;;;;;;;13.43;8.90;;;5.90;82.90;;;;;;10790101;32;20059;-73
2023/01/27 03:24:57;;;;;;;13.48;9.13;;;5.90;83.10;;;;;;10789536;33;20050;-73
2023/01/27 03:31:06;;;;;;;10.95;6.65;;;5.90;83.10;;;;;;10776492;33;20016;-73
2023/01/27 03:49:51;;;;;;;13.88;7.65;;;5.80;83.30;;;;;;10788895;33;20086;-73
2023/01/27 03:55:55;;;;;;;9.77;6.30;;;5.80;83.70;;;;;;10788652;33;20055;-73
2023/01/27 04:08:20;;;;;;;10.38;6.72;;;5.70;83.30;;;;;;10788524;33;20354;-73
2023/01/27 04:14:33;;;;;;;11.35;7.00;;;5.70;83.50;;;;;;10775716;32;20098;-73
2023/01/27 04:20:36;;;;;;;11.07;6.62;;;5.70;83.50;;;;;;10788179;33;20327;-73
2023/01/27 04:26:40;;;;;;;10.48;6.25;;;5.60;83.50;;;;;;10786717;33;20044;-73
2023/01/27 04:32:42;;;;;;;9.93;6.78;;;5.70;83.70;;;;;;10787773;33;20028;-72
2023/01/27 04:38:44;;;;;;;17.50;8.77;;;5.80;83.90;;;;;;10785774;33;20047;-73
2023/01/27 04:44:46;;;;;;;13.73;7.10;;;5.90;83.70;;;;;;10787578;33;20012;-73
2023/01/27 04:50:48;;;;;;;12.50;8.40;;;5.90;83.40;;;;;;10774370;33;20020;-73
2023/01/27 04:56:55;;;;;;;11.95;8.38;;;6.00;83.20;;;;;;10785753;33;20399;-73
2023/01/27 05:02:58;;;;;;;13.25;8.38;;;6.10;83.20;;;;;;10778058;33;20016;-73
2023/01/27 05:09:00;;;;;;;10.65;7.12;;;6.10;82.90;;;;;;10793642;33;20016;-74
2023/01/27 05:15:03;;;;;;;9.07;5.70;;;6.20;82.80;;;;;;10780405;33;20051;-74
2023/01/27 05:21:07;;;;;;;7.72;4.55;;;6.20;82.80;;;;;;10793187;33;20043;-75
2023/01/27 05:27:09;;;;;;;11.32;7.35;;;6.30;82.80;;;;;;10793361;32;20425;-75
2023/01/27 05:33:11;;;;;;;10.50;5.80;;;6.30;82.50;;;;;;10768297;32;20071;-75
2023/01/27 05:39:13;;;;;;;9.20;6.00;;;6.30;82.30;;;;;;10792651;33;20025;-74
2023/01/27 05:45:36;;;;;;;10.20;6.60;;;6.30;82.10;;;;;;10768659;32;20394;-75
2023/01/27 05:51:56;;;;;;;12.70;7.87;;;6.40;82.10;;;;;;10775632;32;20058;-74
2023/01/27 05:57:58;;;;;;;10.32;8.10;;;6.50;82.40;;;;;;10792041;33;20019;-74
2023/01/27 06:04:00;;;;;;;12.25;7.03;;;6.50;82.00;;;;;;10779024;32;20386;-74
2023/01/27 06:10:07;;;;;;;13.35;7.95;;;6.50;81.70;;;;;;10778601;33;20078;-74
2023/01/27 06:16:22;;;;;;;9.07;6.22;;;6.40;81.40;;;;;;10790842;33;20054;-75
2023/01/27 06:22:24;;;;;;;11.57;7.30;;;6.30;81.30;;;;;;10791360;33;20351;-75
2023/01/27 06:28:26;;;;;;;22.02;14.25;;;6.40;81.30;;;;;;10791197;33;20441;-75
2023/01/27 06:34:28;;;;;;;18.58;12.52;;;6.50;81.40;;;;;;10790499;33;20012;-75
2023/01/27 06:40:31;;;;;;;15.77;9.90;;;6.60;81.20;;;;;;10786914;33;20027;-74
2023/01/27 06:46:34;;;;;;;14.48;10.00;;;6.50;80.90;;;;;;10775851;33;20345;-74
2023/01/27 06:52:36;;;;;;;15.77;8.63;;;6.40;80.80;;;;;;10790034;33;20044;-74
2023/01/27 06:58:38;;;;;;;14.50;9.48;;;6.40;80.50;;;;;;10777471;33;20028;-74
2023/01/27 07:04:40;;;;;;;11.60;6.65;;;6.50;80.40;;;;;;10777994;32;20402;-74
2023/01/27 07:10:42;;;;;;;11.85;8.85;;;6.40;80.10;;;;;;10789539;33;20020;-74
2023/01/27 07:16:45;;;;;;;15.18;9.38;;;6.40;80.00;;;;;;10789087;33;20059;-74
2023/01/27 07:22:47;;;;;;;10.05;6.35;;;6.50;80.00;;;;;;10776361;33;20021;-74
2023/01/27 07:28:49;;;;;;;14.68;9.15;;;6.60;79.90;;;;;;10785613;33;20023;-74
2023/01/27 07:34:51;;;;;;;19.42;13.55;;;6.70;79.90;;;;;;10785628;33;20133;-73
2023/01/27 07:40:53;;;;;;;16.77;12.10;;;6.80;80.10;;;;;;10789208;33;20047;-74
2023/01/27 07:47:00;;;;;;;16.87;10.80;;;7.00;79.60;;;;;;10785835;32;20456;-74
2023/01/27 07:53:04;;;;;;;13.18;10.10;;;7.20;79.60;;;;;;10789120;32;20056;-74
2023/01/27 07:59:06;;;;;;;13.05;8.15;;;7.40;79.90;;;;;;10786628;33;20058;-74
2023/01/27 08:05:08;;;;;;;12.77;7.75;;;7.60;80.50;;;;;;10787678;33;20059;-73
2023/01/27 08:11:12;;;;;;;15.30;9.00;;;7.70;80.50;;;;;;10787639;33;20024;-73
2023/01/27 08:17:14;;;;;;;13.62;7.65;;;7.70;81.40;;;;;;10787973;33;20023;-73
2023/01/27 08:23:17;;;;;;;10.98;6.68;;;7.70;81.40;;;;;;10791455;27;20024;-74
2023/01/27 08:29:21;;;;;;;9.13;5.65;;;7.80;81.80;;;;;;10787925;33;20039;-73
2023/01/27 08:35:23;;;;;;;10.52;6.28;;;7.80;82.30;;;;;;10773788;33;20025;-74
2023/01/27 08:41:26;;;;;;;9.63;5.22;;;7.70;82.90;;;;;;10774525;33;20016;-73
2023/01/27 08:47:28;;;;;;;10.00;5.53;;;7.60;83.60;;;;;;10787569;33;20024;-73
2023/01/27 08:53:31;;;;;;;7.65;5.18;;;7.60;84.10;;;;;;10787348;32;20021;-74
2023/01/27 08:59:33;;;;;;;7.53;4.78;;;7.60;84.50;;;;;;10787201;33;20344;-75
2023/01/27 09:05:36;;;;;;;8.75;4.78;;;7.60;84.70;;;;;;10787310;33;20016;-75
2023/01/27 09:11:41;;;;;;;8.07;5.80;;;7.60;85.10;;;;;;10774053;33;20016;-76
2023/01/27 09:17:43;;;;;;;9.27;5.65;;;7.50;85.00;;;;;;10773802;33;20012;-76
2023/01/27 09:23:50;;;;;;;10.90;5.87;;;7.30;85.40;;;;;;10786742;33;20051;-77
2023/01/27 09:29:51;;;;;;;10.40;5.40;;;7.20;85.80;;;;;;10773354;33;20090;-76
2023/01/27 09:36:00;;;;;;;7.07;4.53;;;7.20;85.90;;;;;;10786404;33;20447;-77
2023/01/27 09:42:27;;;;;;;8.90;4.53;;;7.20;86.20;;;;;;10784146;32;20060;-77
2023/01/27 09:48:48;;;;;;;7.80;3.78;;;7.00;85.10;;;;;;10788538;33;20017;-76
2023/01/27 09:55:01;;;;;;;8.23;5.20;;;7.10;85.70;;;;;;10792281;33;20322;-77
2023/01/27 10:01:35;;;;;;;10.82;6.15;;;7.10;84.30;;;;;;10778949;32;20063;-76
2023/01/27 10:07:50;;;;;;;11.25;6.40;;;6.80;84.80;;;;;;10791977;33;20055;-77
2023/01/27 10:14:16;;;;;;;8.52;5.05;;;6.80;84.90;;;;;;10791797;33;20296;-78
2023/01/27 10:20:51;;;;;;;5.45;3.67;;;6.90;85.60;;;;;;10792083;32;20045;-78
2023/01/27 10:27:10;;;;;;;10.40;5.65;;;6.90;85.40;;;;;;10791101;33;20047;-78
2023/01/27 10:33:18;;;;;;;9.07;6.00;;;6.90;84.20;;;;;;10791180;33;20430;-78
2023/01/27 10:39:20;;;;;;;10.40;6.10;;;6.80;82.60;;;;;;10790622;33;20043;-73
2023/01/27 10:45:56;;;;;;;4.22;2.45;;;6.80;82.40;;;;;;10765231;32;20063;-77
2023/01/27 10:52:16;;;;;;;8.10;3.95;;;7.10;84.30;;;;;;10791940;33;20044;-73
2023/01/27 10:58:45;;;;;;;8.03;4.87;;;7.30;83.80;;;;;;10787210;33;20042;-73
2023/01/27 11:05:16;;;;;;;6.17;3.87;;;7.50;84.60;;;;;;10787741;33;20116;-73
2023/01/27 11:17:50;;;;;;;7.15;4.20;;;7.60;84.80;;;;;;10790955;33;20078;-73
2023/01/27 11:23:55;;;;;;;7.10;3.28;;;7.70;84.00;;;;;;10776433;33;20047;-74
2023/01/27 11:30:06;;;;;;;5.87;3.35;;;7.90;83.80;;;;;;10787048;33;20020;-74
2023/01/27 11:36:10;;;;;;;7.60;4.18;;;8.20;83.90;;;;;;10787192;33;20032;-74
2023/01/27 11:42:12;;;;;;;6.87;3.12;;;8.50;83.30;;;;;;10788674;32;20055;-74
2023/01/27 11:48:17;;;;;;;6.82;3.35;;;8.50;82.70;;;;;;10775867;32;20066;-74
2023/01/27 11:54:28;;;;;;;10.23;5.45;;;8.70;84.00;;;;;;10774222;33;20066;-73
2023/01/27 12:00:58;;;;;;;6.78;3.65;;;8.90;84.00;;;;;;10769375;33;20032;-73
2023/01/27 12:07:09;;;;;;;9.63;5.20;;;9.00;83.90;;;;;;10751461;32;20029;-73
2023/01/27 12:13:24;;;;;;;5.47;3.70;;;8.90;83.50;;;;;;10767479;33;20032;-73
2023/01/27 12:19:30;;;;;;;7.78;4.75;;;9.00;84.10;;;;;;10787294;33;20046;-73
2023/01/27 12:25:52;;;;;;;7.10;3.37;;;9.00;84.00;;;;;;10773237;32;20354;-73
2023/01/27 12:31:57;;;;;;;10.45;5.15;;;8.90;82.60;;;;;;10789243;33;20032;-73
2023/01/27 12:38:01;;;;;;;7.70;4.95;;;9.00;83.80;;;;;;10787644;33;20334;-74
2023/01/27 12:44:21;;;;;;;8.02;4.62;;;8.90;82.80;;;;;;10787749;32;20020;-74
2023/01/27 12:50:24;;;;;;;;;;;9.00;83.10;;;;;;10787640;33;20052;-74
2023/01/27 12:56:34;;;;;;;5.25;2.70;;;8.90;83.30;;;;;;10774752;33;19932;-73
2023/01/27 13:03:03;;;;;;;5.68;3.72;;;9.00;84.00;;;;;;10774494;32;20036;-73
2023/01/27 13:09:29;;;;;;;6.30;2.95;;;9.40;83.90;;;;;;10783671;33;20024;-73
2023/01/27 13:15:31;;;;;;;4.43;2.72;;;9.30;83.80;;;;;;10786850;33;20059;-73
2023/01/27 13:21:37;;;;;;;6.10;3.60;;;9.50;82.90;;;;;;10773639;32;20051;-73
2023/01/27 13:27:40;;;;;;;7.70;3.25;;;9.50;83.30;;;;;;10793228;32;20051;-73
2023/01/27 13:33:44;;;;;;;7.40;4.10;;;9.50;82.10;;;;;;10789839;32;20032;-74
2023/01/27 13:40:12;;;;;;;7.00;3.83;;;9.70;81.90;;;;;;10788316;33;20036;-76
2023/01/27 13:46:26;;;;;;;5.15;3.15;;;9.90;81.20;;;;;;10773083;32;20028;-76
2023/01/27 13:52:28;;;;;;;4.53;2.00;;;9.70;80.00;;;;;;10777346;33;20044;-77
2023/01/27 13:58:36;;;;;;;7.82;3.25;;;9.70;81.40;;;;;;10791516;33;20399;-77
2023/01/27 14:05:29;;;;;;;6.40;3.67;;;9.70;80.90;;;;;;10791716;33;20358;-77
2023/01/27 14:12:00;;;;;;;4.97;2.65;;;9.70;84.00;;;;;;10826630;32;20451;-76
2023/01/27 14:18:21;;;;;;;4.85;2.97;;;9.80;84.90;;;;;;10828159;32;20039;-74
2023/01/27 14:24:59;;;;;;;4.30;2.42;;;9.90;85.90;;;;;;10763337;32;20040;-74
2023/01/27 14:31:14;;;;;;;3.08;1.75;;;10.10;86.20;;;;;;10817933;32;20032;-74
2023/01/27 14:37:36;;;;;;;3.30;1.83;;;10.60;86.50;;;;;;10827746;32;20335;-74
2023/01/27 14:44:02;;;;;;;5.80;2.90;;;11.00;85.60;;;;;;10806886;32;20039;-74
2023/01/27 14:50:31;;;;;;;5.32;2.78;;;10.70;86.70;;;;;;10785394;33;20028;-74
2023/01/27 14:56:42;;;;;;;4.20;2.75;;;10.70;87.40;;;;;;10789728;33;20052;-74
2023/01/27 15:02:44;;;;;;;4.30;2.85;;;11.30;86.50;;;;;;10790870;33;20056;-74
2023/01/27 15:08:48;;;;;;;6.12;3.62;;;11.90;85.50;;;;;;10786574;33;20016;-74
2023/01/27 15:15:15;;;;;;;5.22;2.80;;;12.10;84.70;;;;;;10789804;33;20046;-74
2023/01/27 15:21:54;;;;;;;6.35;3.30;;;12.50;83.90;;;;;;10776710;32;20416;-74
2023/01/27 15:27:57;;;;;;;5.87;3.25;;;12.80;83.80;;;;;;10776403;32;20304;-73
2023/01/27 15:34:02;;;;;;;6.12;4.00;;;12.60;83.90;;;;;;10788839;33;20017;-73
2023/01/27 15:40:15;;;;;;;6.28;3.10;;;12.30;84.60;;;;;;10788758;33;20514;-73
2023/01/27 15:46:28;;;;;;;6.62;3.17;;;11.80;85.30;;;;;;10788788;33;20314;-74
2023/01/27 15:52:41;;;;;;;4.60;2.83;;;11.40;86.30;;;;;;10746949;33;20399;-74
2023/01/27 15:58:52;;;;;;;3.55;2.25;;;10.90;87.00;;;;;;10752232;33;20433;-74
2023/01/27 16:05:17;;;;;;;7.53;4.00;;;10.40;87.60;;;;;;10751852;33;20438;-74
2023/01/27 16:11:28;;;;;;;7.10;3.53;;;10.10;87.80;;;;;;10750730;33;20016;-74
2023/01/27 16:17:32;;;;;;;5.53;3.05;;;9.90;87.30;;;;;;10739161;32;20049;-74
2023/01/27 16:23:51;;;;;;;5.78;3.45;;;9.50;87.10;;;;;;10288884;27;16034677;-73
2023/01/27 16:30:04;;;;;;;5.55;3.28;;;9.30;87.20;;;;;;10824496;32;20074;-73
2023/01/27 16:36:21;;;;;;;5.45;3.17;;;9.10;87.00;;;;;;10821183;32;20045;-74
2023/01/27 16:42:33;;;;;;;9.73;4.47;;;9.10;86.80;;;;;;10734577;32;20071;-74
2023/01/27 16:48:45;;;;;;;7.07;3.30;;;9.00;86.50;;;;;;10750586;33;20403;-74
2023/01/27 16:55:20;;;;;;;6.68;3.87;;;8.90;86.30;;;;;;10739066;33;20107;-74
2023/01/27 17:01:28;;;;;;;9.18;4.93;;;8.70;86.30;;;;;;10757235;33;20020;-74
2023/01/27 17:07:33;;;;;;;7.35;4.65;;;8.60;86.20;;;;;;10807687;32;20043;-74
2023/01/27 17:13:51;;;;;;;12.25;5.57;;;8.50;86.10;;;;;;10743873;33;20063;-75
2023/01/27 17:20:02;;;;;;;9.45;5.60;;;8.50;85.90;;;;;;10770753;33;20200;-75
2023/01/27 17:26:15;;;;;;;12.85;6.30;;;8.50;85.90;;;;;;10789308;33;20066;-75
2023/01/27 17:32:28;;;;;;;10.73;7.57;;;8.40;85.70;;;;;;10789180;33;20016;-76
2023/01/27 17:38:45;;;;;;;9.05;6.18;;;8.40;85.50;;;;;;10790536;33;20028;-75
2023/01/27 17:44:49;;;;;;;9.43;6.05;;;8.40;85.00;;;;;;10792517;33;20351;-76
2023/01/27 17:50:51;;;;;;;11.95;7.65;;;8.30;84.90;;;;;;10788570;33;20402;-75
2023/01/27 17:57:06;;;;;;;21.00;9.90;;;8.30;84.80;;;;;;10788336;33;20086;-75
2023/01/27 18:03:26;;;;;;;14.07;7.72;;;8.40;84.40;;;;;;10792096;33;20028;-75
2023/01/27 18:10:22;;;;;;;17.87;9.82;;;8.40;84.10;;;;;;10753596;32;20032;-75
2023/01/27 18:16:24;;;;;;;15.50;10.23;;;8.40;83.80;;;;;;10755324;33;20047;-75
2023/01/27 18:22:30;;;;;;;10.30;6.93;;;8.50;83.70;;;;;;10755099;33;20331;-75
2023/01/27 18:28:35;;;;;;;14.05;8.82;;;8.50;83.40;;;;;;10755164;32;20036;-75
2023/01/27 18:34:48;;;;;;;10.23;8.00;;;8.60;83.40;;;;;;10752492;33;20304;-75
2023/01/27 18:40:50;;;;;;;12.35;9.38;;;8.60;83.30;;;;;;10754168;32;20300;-75
2023/01/27 18:46:58;;;;;;;10.15;6.87;;;8.60;83.20;;;;;;10718028;33;20035;-75
2023/01/27 18:53:00;;;;;;;8.60;5.47;;;8.50;82.90;;;;;;10717804;33;20047;-75
2023/01/27 18:59:02;;;;;;;11.90;6.87;;;8.40;82.80;;;;;;10737769;32;20106;-75
2023/01/27 19:05:20;;;;;;;14.75;9.85;;;8.30;82.70;;;;;;10753824;33;20032;-76
2023/01/27 19:11:23;;;;;;;11.98;8.65;;;8.40;82.80;;;;;;10753486;33;20021;-74
2023/01/27 19:17:25;;;;;;;12.75;8.68;;;8.20;82.60;;;;;;10753193;33;20029;-74
2023/01/27 19:23:31;;;;;;;12.02;7.25;;;8.00;82.40;;;;;;10752710;33;20021;-74
2023/01/27 19:29:36;;;;;;;;;;;8.10;82.30;;;;;;10753039;33;20024;-74
2023/01/27 19:35:39;;;;;;;15.88;8.88;;;7.90;82.40;;;;;;10735039;33;19950;-74
2023/01/27 19:41:41;;;;;;;11.80;7.95;;;7.80;82.20;;;;;;10752684;33;20035;-74
2023/01/27 19:47:47;;;;;;;11.30;7.55;;;7.70;82.20;;;;;;10739084;33;20056;-74
2023/01/27 19:53:49;;;;;;;13.55;8.43;;;7.60;82.20;;;;;;10739697;32;20025;-74
2023/01/27 19:59:52;;;;;;;13.40;9.30;;;7.60;82.10;;;;;;10749544;33;20032;-74
2023/01/27 20:05:55;;;;;;;11.38;8.85;;;7.70;82.10;;;;;;10711979;33;20027;-74
2023/01/27 20:11:56;;;;;;;26.30;10.65;;;7.50;81.90;;;;;;10715414;33;20052;-74
2023/01/27 20:17:59;;;;;;;12.63;8.68;;;7.30;82.00;;;;;;10715203;33;20051;-74
2023/01/27 20:24:01;;;;;;;16.75;11.90;;;7.20;81.80;;;;;;10715034;33;20017;-74
2023/01/27 20:30:04;;;;;;;13.55;9.40;;;7.10;81.70;;;;;;10714540;33;20047;-74
2023/01/27 20:36:10;;;;;;;14.30;9.23;;;7.20;81.80;;;;;;10714502;33;20017;-74
2023/01/27 20:42:53;;;;;;;13.93;9.05;;;7.00;81.90;;;;;;10712983;33;20051;-74
2023/01/27 20:48:59;;;;;;;11.73;7.78;;;7.00;81.50;;;;;;10702791;33;20032;-74
2023/01/27 20:55:02;;;;;;;10.43;7.07;;;7.10;81.20;;;;;;10817508;32;20055;-73
2023/01/27 21:01:06;;;;;;;12.73;8.68;;;7.10;81.40;;;;;;10800427;32;20079;-73
2023/01/27 21:07:11;;;;;;;11.63;8.48;;;7.40;82.00;;;;;;10800387;32;20036;-74
2023/01/27 21:13:32;;;;;;;10.90;7.72;;;7.70;81.90;;;;;;10750561;32;20012;-77
2023/01/27 21:19:34;;;;;;;8.93;5.90;;;7.70;81.70;;;;;;10755280;33;20082;-76
2023/01/27 21:25:37;;;;;;;9.93;6.28;;;7.80;82.20;;;;;;10794809;32;20407;-76
2023/01/27 21:31:42;;;;;;;9.38;6.72;;;7.80;82.60;;;;;;10750387;33;20335;-73
2023/01/27 21:37:48;;;;;;;9.60;5.93;;;7.90;82.80;;;;;;10749597;33;20054;-77
2023/01/27 21:50:13;;;;;;;13.80;9.52;;;7.70;83.40;;;;;;10752038;33;20350;-76
2023/01/27 21:56:15;;;;;;;11.23;7.60;;;7.70;83.30;;;;;;10755811;33;20062;-77
2023/01/27 22:02:18;;;;;;;10.60;6.78;;;7.70;83.00;;;;;;10755621;33;20020;-76
2023/01/27 22:08:20;;;;;;;9.30;6.55;;;7.70;83.00;;;;;;10755354;33;20032;-76
2023/01/27 22:14:22;;;;;;;11.30;5.78;;;7.70;83.30;;;;;;10755113;33;20040;-76
2023/01/27 22:20:26;;;;;;;14.23;10.45;;;7.70;83.50;;;;;;10754999;33;20024;-76
2023/01/27 22:26:28;;;;;;;13.27;7.90;;;7.60;83.40;;;;;;10754639;33;20058;-77
2023/01/27 22:32:30;;;;;;;17.27;12.37;;;7.50;83.20;;;;;;10754731;33;20047;-76
2023/01/27 22:38:36;;;;;;;11.07;8.88;;;7.50;83.20;;;;;;10754454;33;20029;-76
2023/01/27 22:44:38;;;;;;;12.10;6.75;;;7.50;83.10;;;;;;10760795;32;20051;-76
2023/01/27 22:50:40;;;;;;;9.82;6.97;;;7.50;82.80;;;;;;10907625;32;20019;-76
2023/01/27 22:56:43;;;;;;;12.52;8.43;;;7.40;82.80;;;;;;10907044;32;20394;-76
2023/01/27 23:02:46;;;;;;;13.98;9.82;;;7.40;82.80;;;;;;10785728;32;20052;-76
2023/01/27 23:08:49;;;;;;;12.90;6.72;;;7.40;82.70;;;;;;10753822;33;20067;-76
2023/01/27 23:14:51;;;;;;;12.13;7.65;;;7.50;82.70;;;;;;10753028;33;20082;-76
2023/01/27 23:20:53;;;;;;;10.05;7.82;;;7.50;83.20;;;;;;10752431;33;20032;-76
2023/01/27 23:26:54;;;;;;;9.10;4.65;;;7.40;83.10;;;;;;10816169;32;20029;-76
2023/01/27 23:32:56;;;;;;;9.57;5.07;;;7.40;83.10;;;;;;10753220;33;20331;-77
2023/01/27 23:38:58;;;;;;;9.93;6.12;;;7.30;83.00;;;;;;10753105;33;20028;-76
2023/01/27 23:45:01;;;;;;;12.15;7.68;;;7.20;83.00;;;;;;10752848;33;20064;-76
2023/01/27 23:51:11;;;;;;;11.80;7.12;;;7.40;83.50;;;;;;10752737;33;20351;-76
2023/01/27 23:57:15;;;;;;;12.20;8.55;;;7.40;83.70;;;;;;10752447;33;20305;-76
